createdAt,value
2019-05-29T00:00:31.881Z,95290.38
2019-05-29T00:01:35.393Z,95284.53
2019-05-29T00:02:39.489Z,95284.52
2019-05-29T00:03:42.946Z,95288.44
2019-05-29T00:04:47.072Z,95286.20
2019-05-29T00:05:50.586Z,95286.99
2019-05-29T00:06:54.687Z,95284.95
2019-05-29T00:07:58.213Z,95288.52
2019-05-29T00:09:02.241Z,95290.74
2019-05-29T00:10:10.371Z,95286.77
2019-05-29T00:11:14.548Z,95284.69
2019-05-29T00:12:20.132Z,95290.67
2019-05-29T00:13:23.778Z,95286.56
2019-05-29T00:14:27.842Z,95288.88
2019-05-29T00:15:32.014Z,95289.59
2019-05-29T00:16:35.536Z,95283.58
2019-05-29T00:17:39.573Z,95288.28
2019-05-29T00:18:43.090Z,95292.23
2019-05-29T00:19:47.161Z,95294.47
2019-05-29T00:20:50.621Z,95289.04
2019-05-29T00:21:54.729Z,95289.69
2019-05-29T00:22:58.171Z,95287.98
2019-05-29T00:24:02.200Z,95284.27
2019-05-29T00:25:06.632Z,95283.91
2019-05-29T00:26:10.798Z,95284.56
2019-05-29T00:27:15.537Z,95285.69
2019-05-29T00:28:19.728Z,95290.74
2019-05-29T00:29:23.242Z,95285.41
2019-05-29T00:30:27.514Z,95286.73
2019-05-29T00:31:31.069Z,95281.66
2019-05-29T00:32:35.175Z,95286.20
2019-05-29T00:33:38.747Z,95284.33
2019-05-29T00:34:42.914Z,95284.33
2019-05-29T00:35:46.523Z,95280.58
2019-05-29T00:36:50.561Z,95285.84
2019-05-29T00:37:54.065Z,95288.31
2019-05-29T00:38:58.174Z,95290.22
2019-05-29T00:40:01.652Z,95280.68
2019-05-29T00:41:06.743Z,95282.36
2019-05-29T00:42:11.081Z,95283.84
2019-05-29T00:43:15.533Z,95287.06
2019-05-29T00:44:33.536Z,95283.08
2019-05-29T00:45:26.979Z,95290.22
2019-05-29T00:46:30.488Z,95287.06
2019-05-29T00:47:34.589Z,95284.99
2019-05-29T00:48:38.265Z,95288.94
2019-05-29T00:49:42.294Z,95286.86
2019-05-29T00:50:45.769Z,95286.83
2019-05-29T00:51:49.880Z,95289.46
2019-05-29T00:52:53.465Z,95289.27
2019-05-29T00:53:57.569Z,95286.23
2019-05-29T00:55:01.010Z,95287.55
2019-05-29T00:56:05.196Z,95292.63
2019-05-29T00:57:08.772Z,95292.42
2019-05-29T00:58:12.880Z,95288.24
2019-05-29T00:59:17.373Z,95288.41
2019-05-29T01:00:21.680Z,95289.75
2019-05-29T01:01:25.209Z,95289.23
2019-05-29T01:02:29.252Z,95283.41
2019-05-29T01:03:32.756Z,95287.95
2019-05-29T01:04:36.860Z,95288.77
2019-05-29T01:05:40.378Z,95288.55
2019-05-29T01:06:44.429Z,95286.50
2019-05-29T01:07:47.942Z,95287.27
2019-05-29T01:08:52.059Z,95286.14
2019-05-29T01:09:55.493Z,95287.23
2019-05-29T01:10:59.596Z,95290.09
2019-05-29T01:12:03.212Z,95292.36
2019-05-29T01:13:07.430Z,95292.16
2019-05-29T01:14:11.070Z,95293.84
2019-05-29T01:15:15.787Z,95296.11
2019-05-29T01:16:19.631Z,95296.14
2019-05-29T01:17:23.724Z,95299.16
2019-05-29T01:18:27.182Z,95296.00
2019-05-29T01:19:31.324Z,95293.14
2019-05-29T01:20:34.958Z,95298.23
2019-05-29T01:21:39.073Z,95296.36
2019-05-29T01:22:42.534Z,95294.27
2019-05-29T01:23:46.610Z,95292.72
2019-05-29T01:24:50.053Z,95297.63
2019-05-29T01:25:54.150Z,95298.73
2019-05-29T01:26:57.694Z,95295.94
2019-05-29T01:28:01.810Z,95295.94
2019-05-29T01:29:05.317Z,95297.84
2019-05-29T01:30:09.757Z,95304.23
2019-05-29T01:31:13.631Z,95304.63
2019-05-29T01:32:17.715Z,95302.72
2019-05-29T01:33:24.561Z,95302.52
2019-05-29T01:34:28.065Z,95302.16
2019-05-29T01:35:31.605Z,95303.30
2019-05-29T01:36:35.767Z,95307.61
2019-05-29T01:37:39.246Z,95307.58
2019-05-29T01:38:43.358Z,95308.53
2019-05-29T01:39:47.578Z,95308.73
2019-05-29T01:40:51.602Z,95307.05
2019-05-29T01:41:55.056Z,95313.21
2019-05-29T01:42:59.175Z,95312.81
2019-05-29T01:44:02.790Z,95311.67
2019-05-29T01:45:08.856Z,95314.30
2019-05-29T01:46:12.377Z,95309.30
2019-05-29T01:47:17.404Z,95308.92
2019-05-29T01:48:21.598Z,95312.52
2019-05-29T01:49:25.824Z,95312.91
2019-05-29T01:50:29.412Z,95312.87
2019-05-29T01:51:33.195Z,95309.83
2019-05-29T01:52:36.650Z,95318.11
2019-05-29T01:53:40.758Z,95312.84
2019-05-29T01:54:44.340Z,95316.01
2019-05-29T01:55:48.439Z,95321.08
2019-05-29T01:56:51.961Z,95318.64
2019-05-29T01:57:55.986Z,95315.09
2019-05-29T01:58:59.446Z,95315.84
2019-05-29T02:00:03.856Z,95318.67
2019-05-29T02:01:07.554Z,95323.40
2019-05-29T02:02:11.649Z,95321.33
2019-05-29T02:03:15.789Z,95318.50
2019-05-29T02:04:19.922Z,95322.25
2019-05-29T02:05:24.123Z,95325.45
2019-05-29T02:06:28.291Z,95319.63
2019-05-29T02:07:31.771Z,95326.37
2019-05-29T02:08:35.821Z,95326.56
2019-05-29T02:09:39.892Z,95328.44
2019-05-29T02:10:43.991Z,95327.52
2019-05-29T02:11:47.433Z,95324.55
2019-05-29T02:12:51.533Z,95327.20
2019-05-29T02:13:54.997Z,95332.83
2019-05-29T02:14:59.034Z,95326.03
2019-05-29T02:16:02.543Z,95329.22
2019-05-29T02:17:06.711Z,95335.60
2019-05-29T02:18:10.168Z,95334.48
2019-05-29T02:19:14.227Z,95332.83
2019-05-29T02:20:18.987Z,95336.97
2019-05-29T02:21:24.163Z,95336.63
2019-05-29T02:22:27.632Z,95342.42
2019-05-29T02:23:31.730Z,95345.44
2019-05-29T02:24:35.289Z,95340.20
2019-05-29T02:25:39.366Z,95339.98
2019-05-29T02:26:42.984Z,95342.96
2019-05-29T02:27:47.003Z,95343.30
2019-05-29T02:28:50.462Z,95345.57
2019-05-29T02:29:54.608Z,95342.77
2019-05-29T02:30:58.119Z,95340.91
2019-05-29T02:32:02.277Z,95343.34
2019-05-29T02:33:05.853Z,95343.35
2019-05-29T02:34:09.956Z,95347.85
2019-05-29T02:35:13.764Z,95349.17
2019-05-29T02:36:18.042Z,95342.40
2019-05-29T02:37:22.261Z,95349.53
2019-05-29T02:38:27.183Z,95342.01
2019-05-29T02:39:31.356Z,95343.49
2019-05-29T02:40:35.577Z,95348.76
2019-05-29T02:41:39.335Z,95351.02
2019-05-29T02:42:43.393Z,95352.73
2019-05-29T02:43:46.839Z,95355.38
2019-05-29T02:44:50.939Z,95351.41
2019-05-29T02:45:55.436Z,95352.53
2019-05-29T02:46:59.612Z,95360.57
2019-05-29T02:48:03.132Z,95359.81
2019-05-29T02:49:08.126Z,95359.45
2019-05-29T02:50:11.730Z,95363.20
2019-05-29T02:51:15.861Z,95365.47
2019-05-29T02:52:20.097Z,95368.25
2019-05-29T02:53:24.546Z,95370.17
2019-05-29T02:54:30.005Z,95373.37
2019-05-29T02:55:33.849Z,95371.83
2019-05-29T02:56:37.380Z,95377.28
2019-05-29T02:57:41.455Z,95377.67
2019-05-29T02:58:45.216Z,95377.12
2019-05-29T02:59:49.498Z,95379.03
2019-05-29T03:00:54.693Z,95377.33
2019-05-29T03:01:58.823Z,95378.28
2019-05-29T03:03:02.374Z,95385.44
2019-05-29T03:04:06.489Z,95378.11
2019-05-29T03:05:10.401Z,95381.13
2019-05-29T03:06:14.743Z,95377.73
2019-05-29T03:07:18.365Z,95382.44
2019-05-29T03:08:24.638Z,95381.51
2019-05-29T03:09:28.440Z,95380.56
2019-05-29T03:10:33.165Z,95385.83
2019-05-29T03:11:36.723Z,95388.65
2019-05-29T03:12:40.828Z,95390.70
2019-05-29T03:13:44.394Z,95387.31
2019-05-29T03:14:48.424Z,95390.90
2019-05-29T03:16:08.619Z,95396.70
2019-05-29T03:16:59.222Z,95398.01
2019-05-29T03:18:02.726Z,95389.59
2019-05-29T03:19:06.774Z,95398.61
2019-05-29T03:20:10.568Z,95397.11
2019-05-29T03:21:14.691Z,95390.70
2019-05-29T03:22:18.110Z,95392.96
2019-05-29T03:23:21.955Z,95395.03
2019-05-29T03:24:26.666Z,95397.11
2019-05-29T03:25:32.486Z,95398.42
2019-05-29T03:26:36.202Z,95398.61
2019-05-29T03:27:40.276Z,95397.47
2019-05-29T03:28:43.837Z,95406.10
2019-05-29T03:29:47.930Z,95398.22
2019-05-29T03:30:51.544Z,95409.49
2019-05-29T03:31:55.678Z,95405.00
2019-05-29T03:32:59.109Z,95402.14
2019-05-29T03:34:03.253Z,95406.31
2019-05-29T03:35:07.118Z,95407.80
2019-05-29T03:36:11.289Z,95408.39
2019-05-29T03:37:14.826Z,95415.33
2019-05-29T03:38:18.858Z,95415.70
2019-05-29T03:39:22.302Z,95414.22
2019-05-29T03:40:27.125Z,95418.70
2019-05-29T03:41:32.737Z,95416.07
2019-05-29T03:42:39.063Z,95422.29
2019-05-29T03:43:42.567Z,95418.70
2019-05-29T03:44:46.599Z,95418.33
2019-05-29T03:45:50.120Z,95424.53
2019-05-29T03:46:54.165Z,95422.83
2019-05-29T03:47:57.633Z,95424.51
2019-05-29T03:49:01.669Z,95424.31
2019-05-29T03:50:08.130Z,95428.27
2019-05-29T03:51:12.237Z,95426.98
2019-05-29T03:52:15.838Z,95429.40
2019-05-29T03:53:19.890Z,95435.05
2019-05-29T03:54:23.421Z,95438.83
2019-05-29T03:55:29.120Z,95442.77
2019-05-29T03:56:34.644Z,95437.68
2019-05-29T03:57:38.685Z,95440.52
2019-05-29T03:58:42.128Z,95435.78
2019-05-29T03:59:46.227Z,95441.61
2019-05-29T04:00:49.946Z,95445.94
2019-05-29T04:01:53.952Z,95442.94
2019-05-29T04:02:57.470Z,95450.81
2019-05-29T04:04:01.500Z,95449.14
2019-05-29T04:05:06.500Z,95448.20
2019-05-29T04:06:10.604Z,95450.44
2019-05-29T04:07:14.070Z,95450.63
2019-05-29T04:08:18.108Z,95451.17
2019-05-29T04:09:21.556Z,95450.98
2019-05-29T04:10:32.955Z,95452.86
2019-05-29T04:11:37.927Z,95457.38
2019-05-29T04:12:42.422Z,95455.33
2019-05-29T04:13:45.931Z,95459.48
2019-05-29T04:14:50.137Z,95466.42
2019-05-29T04:15:55.324Z,95460.21
2019-05-29T04:17:02.041Z,95461.14
2019-05-29T04:18:06.992Z,95463.59
2019-05-29T04:19:12.885Z,95462.11
2019-05-29T04:20:16.474Z,95466.23
2019-05-29T04:21:21.954Z,95463.97
2019-05-29T04:22:30.278Z,95465.83
2019-05-29T04:23:36.266Z,95470.73
2019-05-29T04:24:42.970Z,95472.05
2019-05-29T04:25:49.327Z,95471.11
2019-05-29T04:26:54.560Z,95474.49
2019-05-29T04:28:00.146Z,95478.23
2019-05-29T04:29:04.243Z,95475.23
2019-05-29T04:30:08.708Z,95475.42
2019-05-29T04:31:12.239Z,95479.92
2019-05-29T04:32:16.369Z,95479.37
2019-05-29T04:33:19.824Z,95483.31
2019-05-29T04:34:23.863Z,95486.31
2019-05-29T04:35:28.286Z,95485.56
2019-05-29T04:36:32.891Z,95486.88
2019-05-29T04:37:37.648Z,95484.61
2019-05-29T04:38:42.727Z,95486.52
2019-05-29T04:39:46.243Z,95484.07
2019-05-29T04:40:50.346Z,95490.61
2019-05-29T04:41:53.884Z,95491.20
2019-05-29T04:42:57.952Z,95494.76
2019-05-29T04:44:01.397Z,95497.58
2019-05-29T04:45:08.699Z,95501.73
2019-05-29T04:46:12.313Z,95500.97
2019-05-29T04:47:16.335Z,95502.45
2019-05-29T04:48:19.899Z,95504.72
2019-05-29T04:49:24.015Z,95507.72
2019-05-29T04:50:29.016Z,95504.73
2019-05-29T04:51:33.339Z,95509.23
2019-05-29T04:52:37.904Z,95513.19
2019-05-29T04:53:42.753Z,95512.81
2019-05-29T04:54:46.291Z,95508.48
2019-05-29T04:55:50.391Z,95513.75
2019-05-29T04:56:53.846Z,95520.33
2019-05-29T04:57:58.070Z,95516.94
2019-05-29T04:59:01.586Z,95520.13
2019-05-29T05:00:07.263Z,95520.31
2019-05-29T05:01:10.727Z,95518.99
2019-05-29T05:02:16.752Z,95525.75
2019-05-29T05:03:19.924Z,95527.07
2019-05-29T05:04:24.058Z,95524.61
2019-05-29T05:05:27.508Z,95527.63
2019-05-29T05:06:31.597Z,95528.02
2019-05-29T05:07:35.391Z,95525.20
2019-05-29T05:08:39.764Z,95526.32
2019-05-29T05:09:43.564Z,95529.88
2019-05-29T05:10:47.746Z,95528.19
2019-05-29T05:11:51.718Z,95531.23
2019-05-29T05:12:55.767Z,95535.53
2019-05-29T05:14:01.581Z,95531.39
2019-05-29T05:15:06.206Z,95530.28
2019-05-29T05:16:09.682Z,95534.58
2019-05-29T05:17:25.650Z,95532.14
2019-05-29T05:18:19.090Z,95538.53
2019-05-29T05:19:23.229Z,95537.22
2019-05-29T05:20:26.674Z,95532.91
2019-05-29T05:21:31.876Z,95541.70
2019-05-29T05:22:36.361Z,95536.23
2019-05-29T05:23:40.776Z,95543.95
2019-05-29T05:24:44.337Z,95545.80
2019-05-29T05:25:48.368Z,95540.54
2019-05-29T05:26:51.903Z,95539.23
2019-05-29T05:27:55.933Z,95550.30
2019-05-29T05:28:59.409Z,95551.64
2019-05-29T05:30:03.592Z,95551.44
2019-05-29T05:31:07.042Z,95552.73
2019-05-29T05:32:11.080Z,95553.32
2019-05-29T05:33:14.538Z,95549.52
2019-05-29T05:34:18.598Z,95552.52
2019-05-29T05:35:22.132Z,95546.91
2019-05-29T05:36:26.160Z,95550.69
2019-05-29T05:37:30.620Z,95551.61
2019-05-29T05:38:34.735Z,95553.48
2019-05-29T05:39:39.069Z,95555.38
2019-05-29T05:40:43.403Z,95558.54
2019-05-29T05:41:47.018Z,95554.59
2019-05-29T05:42:51.124Z,95556.28
2019-05-29T05:43:54.642Z,95553.86
2019-05-29T05:44:58.719Z,95557.83
2019-05-29T05:46:02.201Z,95557.99
2019-05-29T05:47:06.307Z,95562.69
2019-05-29T05:48:09.748Z,95564.22
2019-05-29T05:49:13.866Z,95570.23
2019-05-29T05:50:17.662Z,95564.22
2019-05-29T05:51:21.690Z,95568.34
2019-05-29T05:52:25.225Z,95572.67
2019-05-29T05:53:29.261Z,95572.08
2019-05-29T05:54:33.393Z,95575.84
2019-05-29T05:55:37.728Z,95570.40
2019-05-29T05:56:41.808Z,95572.64
2019-05-29T05:57:45.997Z,95576.98
2019-05-29T05:58:49.428Z,95577.76
2019-05-29T05:59:53.489Z,95572.12
2019-05-29T06:00:56.997Z,95575.70
2019-05-29T06:02:01.393Z,95578.71
2019-05-29T06:03:05.934Z,95577.73
2019-05-29T06:04:10.217Z,95582.80
2019-05-29T06:05:14.327Z,95583.33
2019-05-29T06:06:18.300Z,95586.16
2019-05-29T06:07:22.062Z,95591.27
2019-05-29T06:08:26.044Z,95586.75
2019-05-29T06:09:29.831Z,95587.11
2019-05-29T06:10:34.164Z,95589.20
2019-05-29T06:11:38.332Z,95587.72
2019-05-29T06:12:42.847Z,95589.40
2019-05-29T06:13:46.562Z,95593.55
2019-05-29T06:14:50.944Z,95590.89
2019-05-29T06:15:54.672Z,95597.09
2019-05-29T06:16:58.913Z,95588.08
2019-05-29T06:18:20.013Z,95590.91
2019-05-29T06:19:08.516Z,95595.62
2019-05-29T06:20:12.413Z,95595.23
2019-05-29T06:21:16.569Z,95590.33
2019-05-29T06:22:20.092Z,95592.98
2019-05-29T06:23:24.668Z,95591.08
2019-05-29T06:24:28.391Z,95593.16
2019-05-29T06:25:33.915Z,95593.16
2019-05-29T06:26:38.882Z,95603.50
2019-05-29T06:27:43.434Z,95600.45
2019-05-29T06:28:46.901Z,95598.19
2019-05-29T06:29:51.034Z,95601.39
2019-05-29T06:30:54.674Z,95602.91
2019-05-29T06:31:58.808Z,95603.63
2019-05-29T06:33:02.252Z,95604.41
2019-05-29T06:34:06.378Z,95606.13
2019-05-29T06:35:10.089Z,95604.63
2019-05-29T06:36:14.241Z,95607.61
2019-05-29T06:37:17.701Z,95609.08
2019-05-29T06:38:21.732Z,95607.40
2019-05-29T06:39:25.201Z,95610.94
2019-05-29T06:40:42.099Z,95613.77
2019-05-29T06:41:45.753Z,95614.91
2019-05-29T06:42:49.866Z,95613.41
2019-05-29T06:43:53.323Z,95614.89
2019-05-29T06:44:58.409Z,95615.23
2019-05-29T06:46:02.123Z,95612.60
2019-05-29T06:47:06.163Z,95612.77
2019-05-29T06:48:09.794Z,95618.04
2019-05-29T06:49:13.910Z,95609.56
2019-05-29T06:50:17.531Z,95618.43
2019-05-29T06:51:21.575Z,95618.60
2019-05-29T06:52:25.113Z,95622.33
2019-05-29T06:53:29.328Z,95622.30
2019-05-29T06:54:32.841Z,95615.94
2019-05-29T06:55:37.919Z,95627.61
2019-05-29T06:56:41.769Z,95618.94
2019-05-29T06:57:45.764Z,95622.70
2019-05-29T06:58:49.245Z,95622.50
2019-05-29T06:59:53.276Z,95624.95
2019-05-29T07:00:56.859Z,95623.80
2019-05-29T07:02:00.948Z,95624.16
2019-05-29T07:03:04.640Z,95630.22
2019-05-29T07:04:12.318Z,95625.14
2019-05-29T07:05:14.084Z,95632.46
2019-05-29T07:06:18.285Z,95636.02
2019-05-29T07:07:21.799Z,95634.31
2019-05-29T07:08:38.414Z,95630.36
2019-05-29T07:09:31.074Z,95635.07
2019-05-29T07:10:36.418Z,95640.15
2019-05-29T07:11:41.247Z,95639.56
2019-05-29T07:12:46.485Z,95634.61
2019-05-29T07:13:50.709Z,95632.27
2019-05-29T07:14:54.976Z,95637.70
2019-05-29T07:15:58.566Z,95638.67
2019-05-29T07:17:02.603Z,95637.70
2019-05-29T07:18:06.059Z,95635.03
2019-05-29T07:19:24.794Z,95638.91
2019-05-29T07:20:15.912Z,95637.39
2019-05-29T07:21:20.039Z,95643.23
2019-05-29T07:22:23.666Z,95636.24
2019-05-29T07:23:27.729Z,95640.75
2019-05-29T07:24:31.535Z,95646.59
2019-05-29T07:25:36.810Z,95643.00
2019-05-29T07:26:41.069Z,95648.52
2019-05-29T07:27:45.182Z,95650.63
2019-05-29T07:29:07.320Z,95643.03
2019-05-29T07:29:54.391Z,95647.55
2019-05-29T07:31:02.645Z,95653.76
2019-05-29T07:32:03.717Z,95650.59
2019-05-29T07:33:07.261Z,95654.16
2019-05-29T07:34:11.265Z,95655.44
2019-05-29T07:35:15.711Z,95650.36
2019-05-29T07:36:19.841Z,95657.91
2019-05-29T07:37:23.301Z,95665.04
2019-05-29T07:38:27.336Z,95655.80
2019-05-29T07:39:30.790Z,95662.07
2019-05-29T07:40:35.966Z,95659.03
2019-05-29T07:41:39.670Z,95662.40
2019-05-29T07:42:49.775Z,95656.02
2019-05-29T07:43:48.925Z,95670.15
2019-05-29T07:44:53.099Z,95666.75
2019-05-29T07:45:56.599Z,95666.75
2019-05-29T07:47:01.998Z,95663.91
2019-05-29T07:48:05.788Z,95667.91
2019-05-29T07:49:09.843Z,95671.52
2019-05-29T07:50:13.506Z,95675.79
2019-05-29T07:51:17.562Z,95672.14
2019-05-29T07:52:21.157Z,95677.27
2019-05-29T07:53:25.198Z,95675.55
2019-05-29T07:54:28.732Z,95671.58
2019-05-29T07:55:32.834Z,95672.30
2019-05-29T07:56:36.334Z,95674.09
2019-05-29T07:57:40.873Z,95676.68
2019-05-29T07:58:56.731Z,95671.91
2019-05-29T07:59:50.348Z,95675.43
2019-05-29T08:01:11.722Z,95676.03
2019-05-29T08:01:59.785Z,95677.91
2019-05-29T08:03:03.384Z,95679.95
2019-05-29T08:04:07.508Z,95678.08
2019-05-29T08:05:11.379Z,95676.39
2019-05-29T08:06:15.684Z,95677.72
2019-05-29T08:07:19.169Z,95681.16
2019-05-29T08:08:23.216Z,95680.80
2019-05-29T08:09:26.707Z,95685.34
2019-05-29T08:10:30.802Z,95691.28
2019-05-29T08:11:34.342Z,95685.12
2019-05-29T08:12:43.883Z,95688.17
2019-05-29T08:13:43.826Z,95684.16
2019-05-29T08:14:47.978Z,95682.73
2019-05-29T08:16:01.830Z,95688.32
2019-05-29T08:16:57.201Z,95685.58
2019-05-29T08:18:00.692Z,95685.98
2019-05-29T08:19:07.982Z,95684.47
2019-05-29T08:20:10.304Z,95684.25
2019-05-29T08:21:14.465Z,95693.15
2019-05-29T08:22:33.354Z,95688.17
2019-05-29T08:23:23.730Z,95690.91
2019-05-29T08:24:27.431Z,95693.77
2019-05-29T08:25:31.916Z,95694.83
2019-05-29T08:26:35.362Z,95694.44
2019-05-29T08:27:40.577Z,95695.55
2019-05-29T08:28:44.777Z,95693.81
2019-05-29T08:29:48.966Z,95696.76
2019-05-29T08:30:56.184Z,95698.54
2019-05-29T08:31:58.290Z,95693.81
2019-05-29T08:33:01.731Z,95700.47
2019-05-29T08:34:05.888Z,95692.59
2019-05-29T08:35:09.472Z,95695.59
2019-05-29T08:36:13.562Z,95694.32
2019-05-29T08:37:17.082Z,95695.55
2019-05-29T08:38:21.129Z,95690.52
2019-05-29T08:39:35.134Z,95699.41
2019-05-29T08:40:30.210Z,95702.00
2019-05-29T08:41:33.803Z,95698.08
2019-05-29T08:42:38.182Z,95701.85
2019-05-29T08:43:42.489Z,95700.44
2019-05-29T08:44:47.975Z,95707.53
2019-05-29T08:45:52.645Z,95708.81
2019-05-29T08:47:09.065Z,95706.89
2019-05-29T08:48:02.021Z,95706.83
2019-05-29T08:49:06.132Z,95709.78
2019-05-29T08:50:18.168Z,95711.91
2019-05-29T08:51:15.478Z,95709.42
2019-05-29T08:52:18.991Z,95709.01
2019-05-29T08:53:23.182Z,95714.10
2019-05-29T08:54:26.674Z,95716.73
2019-05-29T08:55:30.730Z,95714.31
2019-05-29T08:56:34.312Z,95720.77
2019-05-29T08:57:38.491Z,95722.08
2019-05-29T08:58:42.883Z,95722.74
2019-05-29T08:59:46.977Z,95721.22
2019-05-29T09:00:54.782Z,95725.67
2019-05-29T09:01:56.350Z,95722.08
2019-05-29T09:02:59.863Z,95719.64
2019-05-29T09:04:04.140Z,95725.39
2019-05-29T09:05:08.156Z,95725.43
2019-05-29T09:06:13.671Z,95727.66
2019-05-29T09:07:17.416Z,95721.52
2019-05-29T09:08:21.476Z,95724.77
2019-05-29T09:09:25.069Z,95726.14
2019-05-29T09:10:29.169Z,95729.75
2019-05-29T09:11:32.625Z,95734.94
2019-05-29T09:12:36.657Z,95734.52
2019-05-29T09:13:40.171Z,95728.08
2019-05-29T09:14:44.283Z,95728.02
2019-05-29T09:15:47.815Z,95733.79
2019-05-29T09:16:51.976Z,95730.94
2019-05-29T09:17:55.565Z,95732.97
2019-05-29T09:18:59.583Z,95733.84
2019-05-29T09:20:03.348Z,95731.02
2019-05-29T09:21:08.979Z,95732.05
2019-05-29T09:22:13.853Z,95734.48
2019-05-29T09:23:18.927Z,95731.51
2019-05-29T09:24:23.078Z,95728.17
2019-05-29T09:25:27.792Z,95736.84
2019-05-29T09:26:31.330Z,95733.23
2019-05-29T09:27:35.379Z,95742.50
2019-05-29T09:28:38.821Z,95736.84
2019-05-29T09:29:42.899Z,95737.06
2019-05-29T09:30:46.466Z,95738.58
2019-05-29T09:31:50.497Z,95743.60
2019-05-29T09:32:57.107Z,95746.81
2019-05-29T09:34:01.270Z,95737.27
2019-05-29T09:35:05.173Z,95740.44
2019-05-29T09:36:09.425Z,95744.41
2019-05-29T09:37:14.186Z,95747.87
2019-05-29T09:38:18.953Z,95747.95
2019-05-29T09:39:22.819Z,95747.12
2019-05-29T09:40:26.994Z,95746.63
2019-05-29T09:41:30.441Z,95748.55
2019-05-29T09:42:34.484Z,95747.43
2019-05-29T09:43:38.008Z,95747.47
2019-05-29T09:44:42.147Z,95750.66
2019-05-29T09:45:46.272Z,95753.69
2019-05-29T09:46:50.368Z,95752.00
2019-05-29T09:47:53.903Z,95760.03
2019-05-29T09:49:01.320Z,95756.33
2019-05-29T09:50:04.832Z,95756.85
2019-05-29T09:51:20.678Z,95754.95
2019-05-29T09:52:14.133Z,95760.68
2019-05-29T09:53:18.302Z,95750.88
2019-05-29T09:54:21.870Z,95758.91
2019-05-29T09:55:26.042Z,95753.63
2019-05-29T09:56:29.503Z,95754.95
2019-05-29T09:57:33.574Z,95756.77
2019-05-29T09:58:37.085Z,95755.95
2019-05-29T09:59:41.128Z,95748.37
2019-05-29T10:00:44.792Z,95751.48
2019-05-29T10:01:48.821Z,95759.73
2019-05-29T10:02:52.827Z,95751.41
2019-05-29T10:04:00.020Z,95757.08
2019-05-29T10:05:04.169Z,95750.58
2019-05-29T10:06:09.455Z,95751.28
2019-05-29T10:07:13.056Z,95755.38
2019-05-29T10:08:17.203Z,95754.02
2019-05-29T10:09:20.764Z,95757.47
2019-05-29T10:10:25.239Z,95759.14
2019-05-29T10:11:28.945Z,95759.89
2019-05-29T10:12:32.967Z,95756.02
2019-05-29T10:13:36.404Z,95753.78
2019-05-29T10:14:40.515Z,95766.00
2019-05-29T10:15:44.129Z,95758.47
2019-05-29T10:16:49.048Z,95753.11
2019-05-29T10:17:52.561Z,95763.14
2019-05-29T10:18:58.497Z,95760.71
2019-05-29T10:20:03.285Z,95756.33
2019-05-29T10:21:07.495Z,95762.38
2019-05-29T10:22:10.978Z,95759.38
2019-05-29T10:23:15.005Z,95760.88
2019-05-29T10:24:18.457Z,95759.80
2019-05-29T10:25:22.363Z,95761.34
2019-05-29T10:26:25.878Z,95759.73
2019-05-29T10:27:29.998Z,95765.28
2019-05-29T10:28:49.905Z,95762.75
2019-05-29T10:29:39.199Z,95766.38
2019-05-29T10:30:44.258Z,95759.22
2019-05-29T10:31:49.798Z,95759.47
2019-05-29T10:32:53.919Z,95766.14
2019-05-29T10:33:58.062Z,95762.94
2019-05-29T10:35:01.579Z,95764.77
2019-05-29T10:36:05.882Z,95770.83
2019-05-29T10:37:09.341Z,95776.20
2019-05-29T10:38:13.544Z,95773.17
2019-05-29T10:39:17.059Z,95780.96
2019-05-29T10:40:21.801Z,95771.78
2019-05-29T10:41:25.246Z,95772.83
2019-05-29T10:42:29.340Z,95774.06
2019-05-29T10:43:34.559Z,95771.81
2019-05-29T10:44:38.623Z,95777.02
2019-05-29T10:45:43.453Z,95776.48
2019-05-29T10:46:50.005Z,95778.70
2019-05-29T10:47:54.091Z,95785.39
2019-05-29T10:48:58.214Z,95784.28
2019-05-29T10:50:01.889Z,95787.09
2019-05-29T10:51:06.140Z,95777.81
2019-05-29T10:52:15.534Z,95781.34
2019-05-29T10:53:15.592Z,95776.48
2019-05-29T10:54:19.198Z,95781.98
2019-05-29T10:55:24.394Z,95781.62
2019-05-29T10:56:27.820Z,95783.71
2019-05-29T10:57:31.851Z,95785.86
2019-05-29T10:58:48.409Z,95780.17
2019-05-29T10:59:41.161Z,95781.36
2019-05-29T11:00:45.412Z,95787.55
2019-05-29T11:01:49.506Z,95778.55
2019-05-29T11:02:55.451Z,95779.14
2019-05-29T11:03:59.098Z,95776.88
2019-05-29T11:05:02.660Z,95781.67
2019-05-29T11:06:06.849Z,95779.26
2019-05-29T11:07:10.375Z,95783.91
2019-05-29T11:08:14.399Z,95781.14
2019-05-29T11:09:17.940Z,95775.84
2019-05-29T11:10:22.803Z,95781.03
2019-05-29T11:11:26.254Z,95782.47
2019-05-29T11:12:30.420Z,95781.66
2019-05-29T11:13:34.011Z,95774.84
2019-05-29T11:14:39.380Z,95780.00
2019-05-29T11:15:42.953Z,95776.48
2019-05-29T11:16:47.077Z,95781.09
2019-05-29T11:17:51.419Z,95775.45
2019-05-29T11:18:55.788Z,95780.91
2019-05-29T11:19:59.584Z,95778.48
2019-05-29T11:21:03.600Z,95770.53
2019-05-29T11:22:25.263Z,95769.50
2019-05-29T11:23:13.034Z,95778.26
2019-05-29T11:24:16.532Z,95776.86
2019-05-29T11:25:26.744Z,95782.39
2019-05-29T11:26:26.673Z,95780.19
2019-05-29T11:27:30.948Z,95789.33
2019-05-29T11:28:34.496Z,95790.06
2019-05-29T11:29:38.530Z,95788.32
2019-05-29T11:30:41.993Z,95784.28
2019-05-29T11:31:46.025Z,95781.69
2019-05-29T11:32:52.545Z,95777.83
2019-05-29T11:33:57.146Z,95777.02
2019-05-29T11:35:02.243Z,95784.13
2019-05-29T11:36:12.348Z,95781.66
2019-05-29T11:37:11.736Z,95775.66
2019-05-29T11:38:15.838Z,95781.44
2019-05-29T11:39:19.447Z,95771.52
2019-05-29T11:40:23.636Z,95774.00
2019-05-29T11:41:27.191Z,95779.64
2019-05-29T11:42:31.354Z,95776.51
2019-05-29T11:43:34.868Z,95781.69
2019-05-29T11:44:40.397Z,95777.10
2019-05-29T11:45:43.922Z,95772.20
2019-05-29T11:46:48.196Z,95775.53
2019-05-29T11:47:53.703Z,95779.42
2019-05-29T11:48:57.494Z,95773.34
2019-05-29T11:50:16.191Z,95783.41
2019-05-29T11:51:06.991Z,95780.02
2019-05-29T11:52:23.556Z,95774.77
2019-05-29T11:53:16.401Z,95782.58
2019-05-29T11:54:20.001Z,95783.92
2019-05-29T11:55:24.175Z,95777.77
2019-05-29T11:56:27.670Z,95787.91
2019-05-29T11:57:31.775Z,95786.55
2019-05-29T11:58:35.286Z,95780.98
2019-05-29T11:59:39.392Z,95789.50
2019-05-29T12:00:43.119Z,95781.66
2019-05-29T12:01:50.712Z,95779.85
2019-05-29T12:02:53.922Z,95784.08
2019-05-29T12:04:18.700Z,95786.34
2019-05-29T12:05:05.832Z,95790.73
2019-05-29T12:06:10.038Z,95788.75
2019-05-29T12:07:13.624Z,95789.73
2019-05-29T12:08:17.648Z,95788.91
2019-05-29T12:09:31.915Z,95784.50
2019-05-29T12:10:27.177Z,95788.73
2019-05-29T12:11:30.624Z,95778.61
2019-05-29T12:12:34.725Z,95784.92
2019-05-29T12:13:39.395Z,95792.03
2019-05-29T12:14:58.966Z,95792.14
2019-05-29T12:15:48.709Z,95790.00
2019-05-29T12:16:54.177Z,95790.22
2019-05-29T12:18:19.099Z,95788.16
2019-05-29T12:19:03.781Z,95794.63
2019-05-29T12:20:26.401Z,95791.81
2019-05-29T12:21:13.905Z,95787.89
2019-05-29T12:22:17.481Z,95781.55
2019-05-29T12:23:26.151Z,95787.73
2019-05-29T12:24:26.699Z,95788.98
2019-05-29T12:25:30.878Z,95785.23
2019-05-29T12:26:34.313Z,95795.95
2019-05-29T12:27:38.357Z,95798.73
2019-05-29T12:28:41.857Z,95797.30
2019-05-29T12:29:45.922Z,95794.54
2019-05-29T12:30:49.537Z,95794.27
2019-05-29T12:31:54.825Z,95790.48
2019-05-29T12:32:59.167Z,95798.97
2019-05-29T12:34:13.106Z,95796.97